< Cyclone 201415 2014 Season Cyclone 201504 >
Cyclone 201416 (Jack)
General InformationTrack Information on Google MapsDetailed Wind InformationList of All Images || ResourceGoogle EarthGE AnimationAtom FeedGeoJSON
Detalied Best Track (Time Zone = UTC)
Year Month Day Hour Lat. Long. Pressure (hPa) Wind (kt) Class Image Chart
2014 4 15 12 -9.9 100.0 1009 0 0 Image --
2014 4 16 00 -9.9 99.0 1009 0 0 Image --
2014 4 16 06 -10.9 98.0 1004 25 2 Image --
2014 4 16 12 -10.8 97.1 1004 25 2 Image --
2014 4 16 18 -10.8 96.1 1004 25 2 Image --
2014 4 17 00 -10.8 95.2 1004 25 2 Image --
2014 4 17 06 -11.4 94.6 1001 30 2 Image --
2014 4 17 12 -11.3 93.8 1001 30 2 Image --
2014 4 17 18 -11.5 93.6 1001 30 2 Image --
2014 4 18 00 -11.6 93.3 1000 30 2 Image --
2014 4 18 06 -11.7 92.7 1001 30 2 Image --
2014 4 18 12 -12.1 91.6 1002 30 2 Image --
2014 4 18 18 -12.4 91.3 998 35 3 Image --
2014 4 19 00 -12.9 91.1 992 45 3 Image --
2014 4 19 06 -13.3 90.9 989 50 4 Image --
2014 4 19 12 -13.8 90.6 982 60 4 Image --
2014 4 19 18 -14.2 90.6 978 65 5 Image --
2014 4 20 00 -14.5 90.7 966 75 5 Image --
2014 4 20 06 -14.6 90.7 966 75 5 Image --
2014 4 20 12 -14.7 91.0 971 70 5 Image --
2014 4 20 18 -15.2 91.4 977 65 5 Image --
2014 4 21 00 -15.4 92.1 979 65 5 Image --
2014 4 21 06 -16.0 92.7 983 60 4 Image --
2014 4 21 12 -16.4 93.3 982 60 4 Image --
2014 4 21 18 -16.4 93.5 984 55 4 Image --
2014 4 22 00 -17.0 94.5 997 40 3 Image --
2014 4 22 02 -17.3 94.9 999.5 35 0 Image --
2014 4 22 06 -17.8 95.3 1002 30 2 Image --
< Cyclone 201415 2014 Season Cyclone 201504 >

Help